Time;durP1;ratioP1;P1;durP2;ratioP2;P2;SDS_P1;SDS_P2;PMS_P1;PMS_P2;Temp;Humidity;BMP_temperature;BMP_pressure;BME280_temperature;BME280_humidity;BME280_pressure;Samples;Min_cycle;Max_cycle;Signal;HPM_P1;HPM_P2
2022/07/01 00:00:09;;;;;;;2.95;2.70;;;;;;;35.76;26.73;97789.47;5093213;28;20024;-80
2022/07/01 00:02:35;;;;;;;2.90;2.58;;;;;;;35.68;26.84;97785.59;5092985;28;20221;-80
2022/07/01 00:05:01;;;;;;;4.13;2.47;;;;;;;35.84;26.55;97786.88;5075621;28;20557;-80
2022/07/01 00:07:28;;;;;;;2.50;2.30;;;;;;;35.83;26.67;97786.09;5072818;28;20034;-79
2022/07/01 00:09:54;;;;;;;2.88;2.65;;;;;;;35.91;26.46;97787.13;5073101;28;20384;-80
2022/07/01 00:12:20;;;;;;;2.65;2.33;;;;;;;36.02;26.15;97789.97;5072933;28;20037;-80
2022/07/01 00:14:46;;;;;;;3.45;2.42;;;;;;;36.08;26.06;97792.03;5072701;28;20037;-80
2022/07/01 00:17:12;;;;;;;2.70;2.30;;;;;;;36.05;26.36;97791.78;5073239;28;20120;-80
2022/07/01 00:19:38;;;;;;;2.53;2.33;;;;;;;36.03;26.41;97796.47;5073050;28;20071;-80
2022/07/01 00:22:04;;;;;;;2.50;2.30;;;;;;;35.99;26.18;97793.88;5089894;28;20067;-80
2022/07/01 00:24:30;;;;;;;2.38;2.15;;;;;;;35.95;26.71;97790.47;5092904;28;20054;-80
2022/07/01 00:26:56;;;;;;;2.63;2.42;;;;;;;35.96;26.44;97794.91;5093122;28;20494;-80
2022/07/01 00:29:23;;;;;;;2.65;2.45;;;;;;;35.92;26.25;97796.44;5092641;28;20028;-80
2022/07/01 00:31:49;;;;;;;2.28;2.08;;;;;;;35.81;26.35;97791.53;5092953;28;20076;-80
2022/07/01 00:34:15;;;;;;;4.07;2.72;;;;;;;35.76;26.46;97792.31;5088013;28;20036;-80
2022/07/01 00:36:41;;;;;;;2.47;2.28;;;;;;;35.60;27.01;97795.19;5078104;28;20037;-80
2022/07/01 00:39:07;;;;;;;2.30;2.10;;;;;;;35.66;26.66;97791.03;5073836;28;20497;-80
2022/07/01 00:41:33;;;;;;;2.67;2.30;;;;;;;35.70;26.72;97785.84;5054791;28;20158;-80
2022/07/01 00:43:59;;;;;;;5.95;2.85;;;;;;;35.73;26.58;97784.78;5072393;28;20032;-80
2022/07/01 00:46:25;;;;;;;3.67;2.42;;;;;;;35.79;26.16;97773.38;5073616;28;20028;-80
2022/07/01 00:48:54;;;;;;;2.70;2.50;;;;;;;35.67;26.52;97772.59;5076271;28;20040;-80
2022/07/01 00:51:20;;;;;;;2.53;2.22;;;;;;;35.63;26.50;97777.03;5076548;28;20032;-80
2022/07/01 00:53:47;;;;;;;2.50;2.13;;;;;;;35.78;26.27;97775.44;5076185;28;20471;-80
2022/07/01 00:56:14;;;;;;;2.38;2.20;;;;;;;35.72;26.23;97771.81;5110176;28;20032;-80
2022/07/01 00:58:40;;;;;;;3.13;2.78;;;;;;;35.77;26.50;97773.09;5096399;28;20059;-80
2022/07/01 01:01:06;;;;;;;3.17;2.65;;;;;;;35.80;26.56;97767.13;5078228;28;20023;-80
2022/07/01 01:03:32;;;;;;;2.90;2.70;;;;;;;35.84;26.38;97761.94;5091810;28;20476;-80
2022/07/01 01:05:58;;;;;;;4.28;2.67;;;;;;;35.58;26.68;97761.44;5076058;28;20107;-80
2022/07/01 01:08:28;;;;;;;2.65;2.45;;;;;;;35.36;27.04;97759.34;5091754;28;20568;-79
2022/07/01 01:10:54;;;;;;;2.83;2.30;;;;;;;35.27;27.18;97755.97;5095790;28;20086;-79
2022/07/01 01:13:21;;;;;;;2.80;2.60;;;;;;;35.51;27.08;97755.47;5094825;28;20032;-79
2022/07/01 01:15:47;;;;;;;2.58;2.38;;;;;;;35.73;27.04;97764.78;5096114;28;20020;-79
2022/07/01 01:18:13;;;;;;;2.83;2.53;;;;;;;35.87;27.02;97765.81;5096111;28;20078;-79
2022/07/01 01:20:39;;;;;;;3.92;3.05;;;;;;;35.86;26.93;97778.53;5096346;28;20028;-80
2022/07/01 01:23:06;;;;;;;2.83;2.63;;;;;;;35.71;26.84;97763.78;5096214;28;20175;-80
2022/07/01 01:25:33;;;;;;;4.97;2.72;;;;;;;35.38;27.38;97771.03;5111778;28;20062;-80
2022/07/01 01:28:00;;;;;;;2.85;2.65;;;;;;;35.07;27.89;97761.94;5095265;28;20068;-80
2022/07/01 01:30:26;;;;;;;2.78;2.58;;;;;;;35.17;27.62;97758.31;5095112;28;20032;-80
2022/07/01 01:32:52;;;;;;;5.30;3.55;;;;;;;35.33;27.56;97765.34;5095583;28;20024;-80
2022/07/01 01:35:19;;;;;;;2.80;2.60;;;;;;;35.37;27.47;97769.50;5075297;28;20555;-80
2022/07/01 01:37:46;;;;;;;2.95;2.58;;;;;;;35.34;27.67;97764.03;5075387;28;20492;-80
2022/07/01 01:40:16;;;;;;;2.60;2.40;;;;;;;35.53;27.29;97765.09;5075484;28;20025;-80
2022/07/01 01:42:43;;;;;;;3.20;2.90;;;;;;;35.55;27.21;97768.19;5075327;28;20437;-79
2022/07/01 01:45:10;;;;;;;3.15;2.83;;;;;;;35.63;27.18;97769.25;5076503;28;20944;-80
2022/07/01 01:47:36;;;;;;;2.80;2.50;;;;;;;35.71;26.66;97775.97;5095420;28;20028;-79
2022/07/01 01:50:08;;;;;;;4.28;2.58;;;;;;;35.56;27.17;97783.25;5095523;28;20024;-80
2022/07/01 01:52:35;;;;;;;2.97;2.67;;;;;;;35.43;27.47;97787.38;5095576;28;20085;-79
2022/07/01 01:55:01;;;;;;;3.70;3.40;;;;;;;35.09;27.89;97782.19;5095450;28;20036;-79
2022/07/01 01:57:27;;;;;;;4.97;2.90;;;;;;;34.99;27.77;97792.25;5095068;28;20473;-80
2022/07/01 01:59:53;;;;;;;3.42;3.13;;;;;;;34.98;27.64;97788.63;5095510;28;20054;-80
2022/07/01 02:02:20;;;;;;;2.90;2.63;;;;;;;35.07;27.68;97784.78;5093401;28;20563;-80
2022/07/01 02:04:46;;;;;;;2.97;2.70;;;;;;;34.96;27.82;97784.72;5080356;28;20024;-80
2022/07/01 02:07:12;;;;;;;3.75;3.00;;;;;;;35.06;27.70;97781.13;5080498;28;20032;-79
2022/07/01 02:09:38;;;;;;;3.55;2.75;;;;;;;35.21;27.62;97778.03;5095038;28;20529;-80
2022/07/01 02:12:04;;;;;;;3.80;2.67;;;;;;;35.29;27.22;97779.06;5094826;28;20385;-79
2022/07/01 02:14:30;;;;;;;2.55;2.35;;;;;;;35.14;27.29;97781.41;5095059;28;20110;-80
2022/07/01 02:16:57;;;;;;;3.08;2.33;;;;;;;35.03;27.58;97776.44;5095009;28;20086;-79
2022/07/01 02:19:23;;;;;;;2.80;2.47;;;;;;;34.85;27.50;97781.84;5091139;28;20027;-79
2022/07/01 02:21:50;;;;;;;2.63;2.38;;;;;;;34.99;27.38;97786.53;5075204;28;20357;-79
2022/07/01 02:24:17;;;;;;;2.90;2.70;;;;;;;35.24;26.81;97788.44;5074992;28;20025;-79
2022/07/01 02:26:43;;;;;;;3.50;3.00;;;;;;;35.23;26.81;97787.66;5074524;28;20043;-79
2022/07/01 02:29:09;;;;;;;2.85;2.65;;;;;;;35.38;26.35;97785.31;5086601;28;20036;-79
2022/07/01 02:31:35;;;;;;;3.25;2.53;;;;;;;35.53;26.39;97796.50;5074394;28;20032;-79
2022/07/01 02:34:01;;;;;;;3.00;2.72;;;;;;;35.50;26.45;97797.53;5080794;28;20533;-79
2022/07/01 02:36:27;;;;;;;4.88;3.05;;;;;;;35.58;26.06;97801.44;5078211;28;20048;-79
2022/07/01 02:38:53;;;;;;;2.78;2.58;;;;;;;35.39;26.30;97800.38;5089898;28;20028;-79
2022/07/01 02:41:20;;;;;;;5.60;2.75;;;;;;;35.18;26.51;97805.53;5073938;28;20043;-79
2022/07/01 02:43:46;;;;;;;3.08;2.78;;;;;;;34.75;27.30;97804.13;5074155;28;20587;-79
2022/07/01 02:46:12;;;;;;;2.47;2.25;;;;;;;34.73;27.31;97801.00;5074475;28;20024;-79
2022/07/01 02:48:38;;;;;;;2.58;2.38;;;;;;;34.83;27.31;97793.00;5073877;28;20111;-79
2022/07/01 02:51:04;;;;;;;2.92;2.22;;;;;;;34.87;26.80;97793.53;5074016;28;20032;-79
2022/07/01 02:53:30;;;;;;;2.95;2.65;;;;;;;34.86;27.22;97801.31;5078239;28;20038;-79
2022/07/01 02:55:57;;;;;;;2.85;2.50;;;;;;;35.00;26.99;97790.97;5093976;28;20031;-79
2022/07/01 02:58:24;;;;;;;3.53;3.22;;;;;;;35.19;26.94;97806.34;5094179;28;20044;-79
2022/07/01 03:00:52;;;;;;;4.60;3.28;;;;;;;35.37;26.51;97802.97;5094126;28;20103;-79
2022/07/01 03:03:19;;;;;;;4.43;3.15;;;;;;;35.34;26.31;97799.06;5091624;28;20035;-79
2022/07/01 03:05:47;;;;;;;3.55;2.97;;;;;;;34.88;26.23;97795.88;5073997;28;20046;-79
2022/07/01 03:08:13;;;;;;;2.63;2.42;;;;;;;34.53;26.80;97804.84;5087671;28;20044;-79
2022/07/01 03:10:39;;;;;;;3.63;3.20;;;;;;;34.50;27.41;97805.81;5091286;28;20036;-79
2022/07/01 03:13:05;;;;;;;3.03;2.72;;;;;;;34.45;27.59;97809.44;5093915;28;20066;-79
2022/07/01 03:15:31;;;;;;;3.13;2.92;;;;;;;34.22;28.00;97812.69;5093936;28;20036;-79
2022/07/01 03:17:57;;;;;;;5.00;3.53;;;;;;;34.57;27.86;97805.34;5075845;28;20024;-79
2022/07/01 03:20:23;;;;;;;4.35;3.10;;;;;;;34.96;27.04;97811.16;5093832;28;20034;-79
2022/07/01 03:22:50;;;;;;;3.47;3.17;;;;;;;35.29;26.89;97807.63;5093626;28;20028;-79
2022/07/01 03:25:17;;;;;;;2.80;2.60;;;;;;;35.56;26.41;97808.97;5093574;28;20048;-79
2022/07/01 03:27:47;;;;;;;3.25;2.97;;;;;;;35.40;26.48;97807.66;5087630;28;20587;-79
2022/07/01 03:30:14;;;;;;;3.40;2.97;;;;;;;34.92;27.31;97809.88;5073757;28;20040;-79
2022/07/01 03:32:40;;;;;;;3.28;2.58;;;;;;;34.98;27.20;97805.75;5073278;28;20445;-79
2022/07/01 03:35:35;;;;;;;2.80;2.60;;;;;;;34.98;27.02;97802.13;5088337;28;20089;-79
2022/07/01 03:37:55;;;;;;;3.38;2.90;;;;;;;35.07;27.28;97799.81;5072852;28;20040;-79
2022/07/01 03:40:21;;;;;;;4.75;3.03;;;;;;;35.80;27.34;97807.13;5073266;28;20043;-79
2022/07/01 03:42:48;;;;;;;3.00;2.70;;;;;;;36.48;26.64;97805.72;5073110;28;20036;-79
2022/07/01 03:45:14;;;;;;;3.70;3.25;;;;;;;36.52;26.45;97809.88;5074272;28;20083;-79
2022/07/01 03:47:49;;;;;;;3.60;3.20;;;;;;;36.35;26.83;97809.13;5073233;28;20061;-79
2022/07/01 03:50:16;;;;;;;2.90;2.70;;;;;;;36.54;27.71;97806.47;5073278;28;20150;-79
2022/07/01 03:52:43;;;;;;;3.63;3.40;;;;;;;37.07;26.59;97811.66;5072843;28;20488;-79
2022/07/01 03:55:12;;;;;;;3.83;2.80;;;;;;;37.35;26.72;97809.41;5073137;28;20520;-79
2022/07/01 03:57:38;;;;;;;3.33;3.05;;;;;;;37.42;25.87;97808.06;5073439;28;20032;-79
2022/07/01 04:00:06;;;;;;;4.18;3.38;;;;;;;37.36;25.73;97807.31;5073151;28;20028;-79
2022/07/01 04:02:32;;;;;;;3.47;3.17;;;;;;;37.30;25.89;97815.94;5077752;28;20028;-77
2022/07/01 04:04:58;;;;;;;3.70;3.30;;;;;;;37.21;26.29;97812.63;5072928;28;20033;-77
2022/07/01 04:07:26;;;;;;;3.40;3.10;;;;;;;37.23;26.06;97818.59;5071432;28;20039;-77
2022/07/01 04:09:52;;;;;;;2.97;2.67;;;;;;;37.40;25.95;97810.69;5072933;28;20492;-77
2022/07/01 04:12:19;;;;;;;3.40;3.10;;;;;;;37.56;26.17;97818.38;5072536;28;20085;-77
2022/07/01 04:14:45;;;;;;;2.85;2.65;;;;;;;37.63;25.98;97826.38;5072821;28;20029;-77
2022/07/01 04:17:12;;;;;;;3.55;3.25;;;;;;;37.66;26.16;97830.28;5072874;28;20036;-78
2022/07/01 04:19:38;;;;;;;2.88;2.67;;;;;;;37.83;26.37;97825.22;5086002;28;20033;-78
2022/07/01 04:24:48;;;;;;;2.70;2.50;;;;;;;38.17;26.28;97822.78;5097215;28;20125;-77
2022/07/01 04:27:15;;;;;;;2.80;2.60;;;;;;;38.50;25.62;97813.81;5079179;28;20047;-78
2022/07/01 04:29:41;;;;;;;2.67;2.50;;;;;;;38.63;25.52;97811.81;5097253;28;20035;-78
2022/07/01 04:32:07;;;;;;;2.40;2.20;;;;;;;38.89;26.01;97814.13;5097322;28;20060;-77
2022/07/01 04:34:33;;;;;;;2.83;2.63;;;;;;;39.02;25.67;97822.03;5096594;28;20047;-77
2022/07/01 04:36:59;;;;;;;3.60;2.97;;;;;;;39.24;25.23;97821.72;5094803;28;20031;-78
2022/07/01 04:39:25;;;;;;;2.15;2.03;;;;;;;39.48;24.91;97821.63;5078559;28;20024;-78
2022/07/01 04:42:00;;;;;;;2.15;1.95;;;;;;;39.69;24.59;97822.63;5096736;28;20036;-78
2022/07/01 04:44:37;;;;;;;1.95;1.85;;;;;;;39.69;25.07;97814.00;5096693;28;20036;-77
2022/07/01 04:47:04;;;;;;;2.50;2.25;;;;;;;39.72;24.69;97821.53;5096566;28;20077;-78
2022/07/01 04:49:31;;;;;;;2.17;1.92;;;;;;;39.55;24.95;97821.00;5096535;28;20490;-78
2022/07/01 04:51:58;;;;;;;2.17;2.08;;;;;;;39.58;25.36;97822.81;5096392;28;20478;-78
2022/07/01 04:54:25;;;;;;;2.22;2.13;;;;;;;39.61;25.33;97820.94;5095639;28;20036;-78
2022/07/01 04:56:52;;;;;;;2.22;2.03;;;;;;;39.78;24.93;97821.41;5096805;28;20044;-77
2022/07/01 04:59:19;;;;;;;2.58;1.98;;;;;;;39.67;24.98;97827.34;5078188;28;20036;-78
2022/07/01 05:01:48;;;;;;;1.80;1.70;;;;;;;39.73;24.77;97823.06;5085191;28;20035;-78
2022/07/01 05:04:16;;;;;;;2.05;1.92;;;;;;;39.31;24.70;97823.97;5075804;28;20031;-78
2022/07/01 05:06:42;;;;;;;3.10;2.05;;;;;;;39.51;24.37;97825.50;5075888;28;20163;-78
2022/07/01 05:09:08;;;;;;;2.83;1.85;;;;;;;39.78;23.62;97825.06;5058744;28;20035;-77
2022/07/01 05:11:34;;;;;;;2.33;2.17;;;;;;;39.98;23.06;97829.44;5096223;28;20077;-77
2022/07/01 05:14:00;;;;;;;2.88;1.90;;;;;;;39.83;24.06;97826.28;5086501;28;20522;-77
2022/07/01 05:16:27;;;;;;;2.00;1.90;;;;;;;40.09;23.60;97825.59;5086048;28;20094;-78
2022/07/01 05:21:56;;;;;;;1.70;1.60;;;;;;;39.74;24.19;97813.13;5096140;28;20039;-77
2022/07/01 05:24:23;;;;;;;2.20;2.10;;;;;;;39.53;23.87;97817.88;5095944;28;20117;-77
2022/07/01 05:26:49;;;;;;;1.60;1.50;;;;;;;39.92;23.86;97809.38;5093935;28;20051;-78
2022/07/01 05:29:16;;;;;;;1.80;1.70;;;;;;;40.21;22.98;97812.56;5095453;28;20478;-78
2022/07/01 05:31:42;;;;;;;1.80;1.70;;;;;;;40.64;22.33;97810.91;5081065;28;20024;-78
2022/07/01 05:34:08;;;;;;;1.50;1.40;;;;;;;40.89;22.62;97808.56;5082761;28;20036;-78
2022/07/01 05:36:34;;;;;;;1.65;1.55;;;;;;;41.14;22.65;97804.06;5095887;28;20036;-78
2022/07/01 05:39:01;;;;;;;1.45;1.35;;;;;;;41.11;22.28;97808.06;5095711;28;20042;-78
2022/07/01 05:41:27;;;;;;;1.95;1.85;;;;;;;41.31;21.97;97806.59;5095637;28;20421;-78
2022/07/01 05:43:53;;;;;;;2.03;1.50;;;;;;;41.15;22.33;97805.59;5087522;28;20025;-78
2022/07/01 05:46:19;;;;;;;2.83;1.50;;;;;;;40.60;21.98;97809.69;5075593;28;20024;-78
2022/07/01 05:48:45;;;;;;;1.50;1.40;;;;;;;40.48;22.06;97814.13;5074936;28;20039;-78
2022/07/01 05:51:11;;;;;;;2.08;1.83;;;;;;;40.94;22.49;97819.19;5075597;28;20025;-78
2022/07/01 05:53:38;;;;;;;1.70;1.60;;;;;;;41.10;21.98;97815.16;5075316;28;20107;-78
2022/07/01 05:56:05;;;;;;;1.92;1.80;;;;;;;41.00;22.89;97808.31;5075188;28;20051;-78
2022/07/01 05:58:31;;;;;;;1.67;1.58;;;;;;;40.94;23.44;97807.66;5047263;28;20053;-78
2022/07/01 06:00:57;;;;;;;2.70;1.80;;;;;;;41.06;23.64;97805.31;5060539;28;20029;-78
2022/07/01 06:03:23;;;;;;;1.70;1.60;;;;;;;40.97;23.75;97797.13;5037086;28;20029;-78
2022/07/01 06:05:49;;;;;;;1.67;1.58;;;;;;;40.75;23.82;97801.28;5054750;28;20048;-78
2022/07/01 06:08:15;;;;;;;1.70;1.60;;;;;;;41.02;24.25;97799.13;5063667;28;20119;-78
2022/07/01 06:10:41;;;;;;;1.60;1.50;;;;;;;41.45;24.64;97802.31;5090513;28;20029;-78
2022/07/01 06:13:07;;;;;;;1.60;1.50;;;;;;;41.73;22.92;97802.41;5074716;28;20024;-78
2022/07/01 06:15:33;;;;;;;3.80;1.60;;;;;;;41.97;22.89;97804.13;5074743;28;20029;-78
2022/07/01 06:18:00;;;;;;;1.85;1.75;;;;;;;41.74;22.72;97808.94;5065476;28;20125;-78
2022/07/01 06:20:26;;;;;;;2.00;1.80;;;;;;;41.65;21.63;97803.66;5054590;28;20116;-78
2022/07/01 06:22:52;;;;;;;3.03;1.92;;;;;;;41.70;21.65;97803.53;5054617;28;20078;-78
2022/07/01 06:25:18;;;;;;;2.20;2.00;;;;;;;42.02;22.00;97806.09;5054706;28;20029;-78
2022/07/01 06:27:45;;;;;;;1.90;1.80;;;;;;;42.48;20.64;97813.75;5054418;28;20056;-78
2022/07/01 06:30:12;;;;;;;2.08;1.98;;;;;;;42.10;21.57;97803.31;5054755;28;20037;-78
2022/07/01 06:32:39;;;;;;;2.55;2.17;;;;;;;41.44;22.54;97797.88;5054219;28;20473;-78
2022/07/01 06:35:05;;;;;;;2.70;2.55;;;;;;;41.87;21.56;97806.75;5065066;28;20047;-78
2022/07/01 06:37:33;;;;;;;2.17;2.08;;;;;;;42.01;22.35;97802.44;5054210;28;20039;-78
2022/07/01 06:40:00;;;;;;;2.75;2.55;;;;;;;42.11;21.98;97805.63;5054572;28;20045;-78
2022/07/01 06:42:26;;;;;;;3.45;2.35;;;;;;;41.89;22.42;97800.44;5054608;28;20021;-78
2022/07/01 06:44:52;;;;;;;2.67;2.47;;;;;;;42.18;22.40;97801.22;5053056;28;20487;-78
2022/07/01 06:47:19;;;;;;;5.50;2.33;;;;;;;42.44;22.03;97798.13;5054023;28;20048;-78
2022/07/01 06:49:45;;;;;;;4.15;2.30;;;;;;;43.16;20.65;97793.13;5053998;28;20481;-78
2022/07/01 06:52:11;;;;;;;2.33;2.22;;;;;;;43.60;21.03;97797.47;5063759;28;20032;-78
2022/07/01 06:54:39;;;;;;;2.65;2.45;;;;;;;43.21;21.19;97790.06;5074065;28;20033;-78
2022/07/01 06:57:05;;;;;;;3.03;2.40;;;;;;;42.70;21.80;97797.16;5074021;28;20037;-78
2022/07/01 06:59:32;;;;;;;3.08;2.80;;;;;;;41.45;23.18;97795.78;5079139;28;20049;-78
2022/07/01 07:01:58;;;;;;;2.92;2.72;;;;;;;41.15;23.87;97799.06;5073910;28;20047;-78
2022/07/01 07:04:25;;;;;;;3.20;3.00;;;;;;;40.71;24.79;97797.94;5073891;28;20032;-78
2022/07/01 07:06:51;;;;;;;6.75;2.80;;;;;;;41.03;24.07;97804.31;5075754;28;20673;-78
2022/07/01 07:09:17;;;;;;;2.60;2.40;;;;;;;40.93;24.09;97806.13;5082802;28;20043;-78
2022/07/01 07:11:43;;;;;;;3.20;2.90;;;;;;;41.49;24.82;97799.84;5073671;28;20128;-78
2022/07/01 07:14:09;;;;;;;7.15;2.45;;;;;;;41.57;23.55;97802.81;5073429;28;20060;-78
2022/07/01 07:16:35;;;;;;;2.67;2.47;;;;;;;42.00;22.68;97803.00;5073896;28;20021;-78
2022/07/01 07:19:02;;;;;;;3.28;3.08;;;;;;;41.17;23.03;97802.94;5073353;28;20036;-78
2022/07/01 07:21:28;;;;;;;3.00;2.60;;;;;;;41.29;23.09;97798.50;5073407;28;20032;-78
2022/07/01 07:23:54;;;;;;;2.95;2.78;;;;;;;41.89;22.08;97798.31;5072198;28;20033;-78
2022/07/01 07:26:21;;;;;;;3.60;2.50;;;;;;;42.41;21.53;97808.72;5084542;28;20035;-79
2022/07/01 07:28:47;;;;;;;3.30;3.05;;;;;;;43.24;21.25;97797.59;5094115;28;20032;-79
2022/07/01 07:31:13;;;;;;;2.60;2.40;;;;;;;43.72;19.93;97801.56;5093726;28;20446;-78
2022/07/01 07:33:39;;;;;;;2.72;2.20;;;;;;;44.13;19.73;97796.75;5089959;28;20051;-78
2022/07/01 07:36:06;;;;;;;2.50;2.13;;;;;;;44.56;19.02;97802.28;5073704;28;20056;-78
2022/07/01 07:38:32;;;;;;;3.03;2.65;;;;;;;44.06;18.86;97794.63;5076843;28;20492;-79
2022/07/01 07:41:01;;;;;;;2.95;2.28;;;;;;;44.33;18.72;97798.66;5093516;28;20024;-79
2022/07/01 07:43:27;;;;;;;4.55;2.90;;;;;;;44.30;19.08;97796.94;5091743;28;20496;-79
2022/07/01 07:45:53;;;;;;;3.78;2.10;;;;;;;44.46;18.52;97789.78;5093336;28;20438;-79
2022/07/01 07:48:19;;;;;;;2.63;2.42;;;;;;;44.65;19.02;97804.56;5075240;28;20055;-79
2022/07/01 07:50:47;;;;;;;2.95;2.75;;;;;;;44.46;20.29;97807.91;5093643;28;20028;-78
2022/07/01 07:53:13;;;;;;;3.75;3.33;;;;;;;42.49;21.82;97817.44;5093567;28;20392;-78
2022/07/01 07:55:40;;;;;;;2.80;2.67;;;;;;;41.92;23.10;97811.59;5093149;28;20044;-78
2022/07/01 07:58:06;;;;;;;3.53;3.10;;;;;;;42.01;23.74;97805.31;5082300;28;20128;-78
2022/07/01 08:00:33;;;;;;;6.63;3.92;;;;;;;41.38;23.23;97802.22;5073763;28;20115;-79
2022/07/01 08:02:59;;;;;;;4.40;2.95;;;;;;;42.07;23.66;97810.97;5055134;28;20476;-79
2022/07/01 08:05:25;;;;;;;3.35;3.15;;;;;;;41.72;23.81;97800.09;5073097;28;20036;-79
2022/07/01 08:07:51;;;;;;;3.92;3.63;;;;;;;41.85;22.44;97806.53;5083388;28;20032;-78
2022/07/01 08:10:17;;;;;;;3.50;3.17;;;;;;;41.49;22.96;97808.50;5093467;28;20439;-78
2022/07/01 08:12:43;;;;;;;3.80;3.42;;;;;;;41.40;22.94;97806.09;5092774;28;20061;-78
2022/07/01 08:15:09;;;;;;;3.17;2.90;;;;;;;42.07;22.01;97808.06;5093137;28;20062;-79
2022/07/01 08:17:36;;;;;;;3.88;3.58;;;;;;;41.43;22.60;97810.72;5079581;28;20035;-78
2022/07/01 08:20:02;;;;;;;4.65;3.30;;;;;;;42.06;22.35;97815.16;5072923;28;20033;-78
2022/07/01 08:22:28;;;;;;;3.35;3.03;;;;;;;41.97;21.94;97804.91;5073029;28;20074;-78
2022/07/01 08:24:54;;;;;;;6.13;3.15;;;;;;;41.68;23.99;97812.00;5072784;28;20052;-78
2022/07/01 08:27:20;;;;;;;3.40;3.20;;;;;;;41.80;21.82;97810.34;5072446;28;20040;-78
2022/07/01 08:29:46;;;;;;;3.90;3.58;;;;;;;41.20;22.38;97809.69;5072867;28;20485;-79
2022/07/01 08:32:12;;;;;;;3.47;3.28;;;;;;;41.42;21.96;97809.19;5077087;28;20503;-78
2022/07/01 08:34:39;;;;;;;5.05;3.13;;;;;;;42.08;22.20;97800.97;5078935;28;20020;-78
2022/07/01 08:37:05;;;;;;;2.92;2.72;;;;;;;41.66;21.37;97808.84;5072801;28;20477;-79
2022/07/01 08:39:31;;;;;;;4.63;4.15;;;;;;;40.87;23.20;97802.56;5084269;28;20396;-79
2022/07/01 08:41:58;;;;;;;3.40;3.20;;;;;;;41.43;23.23;97796.31;5092628;28;20032;-79
2022/07/01 08:44:25;;;;;;;4.00;3.70;;;;;;;41.29;23.03;97798.50;5092761;28;20020;-79
2022/07/01 08:46:51;;;;;;;3.40;3.10;;;;;;;40.95;23.45;97799.78;5092808;28;20020;-79
2022/07/01 08:49:17;;;;;;;4.57;4.15;;;;;;;40.45;24.10;97795.84;5076107;28;20036;-78
2022/07/01 08:51:43;;;;;;;6.80;4.82;;;;;;;40.26;24.08;97800.91;5086508;28;20062;-79
2022/07/01 08:54:10;;;;;;;5.07;4.60;;;;;;;41.03;23.45;97804.31;5092732;28;20399;-78
2022/07/01 08:56:43;;;;;;;4.15;3.85;;;;;;;41.67;22.80;97798.09;5083864;28;20037;-79
2022/07/01 08:59:10;;;;;;;4.43;4.03;;;;;;;41.17;22.63;97794.28;5072486;28;20057;-78
2022/07/01 09:01:37;;;;;;;4.22;3.90;;;;;;;42.23;22.41;97794.53;5072477;28;20103;-78
2022/07/01 09:04:20;;;;;;;3.63;3.33;;;;;;;42.61;21.33;97795.56;5072448;28;20031;-79
2022/07/01 09:06:47;;;;;;;4.03;3.72;;;;;;;41.81;22.35;97800.38;5077742;28;20035;-78
2022/07/01 09:09:20;;;;;;;3.83;3.63;;;;;;;41.34;22.64;97800.47;5094791;28;20089;-78
2022/07/01 09:11:52;;;;;;;4.32;4.00;;;;;;;41.93;22.22;97795.84;5096201;28;20043;-78
2022/07/01 09:14:26;;;;;;;4.53;3.92;;;;;;;42.96;20.48;97794.81;5096174;28;20024;-78
2022/07/01 09:17:02;;;;;;;4.10;3.80;;;;;;;43.81;19.64;97786.50;5096151;28;20036;-79
2022/07/01 09:19:31;;;;;;;4.55;4.00;;;;;;;42.31;21.97;97799.03;5096223;28;20518;-78
2022/07/01 09:22:02;;;;;;;4.07;3.78;;;;;;;42.42;22.31;97803.72;5096117;28;20111;-78
2022/07/01 09:24:37;;;;;;;4.18;3.80;;;;;;;42.87;21.26;97808.97;5091133;28;20056;-78
2022/07/01 09:27:16;;;;;;;5.00;4.57;;;;;;;41.09;22.65;97796.31;5075433;28;20041;-78
2022/07/01 09:29:45;;;;;;;5.78;5.18;;;;;;;40.82;23.14;97797.69;5075804;28;20029;-78
2022/07/01 09:32:16;;;;;;;5.70;5.20;;;;;;;41.05;23.84;97806.66;5075599;28;20032;-78
2022/07/01 09:34:50;;;;;;;5.40;4.90;;;;;;;41.53;21.83;97808.13;5077505;28;20039;-78
2022/07/01 09:37:19;;;;;;;5.65;5.20;;;;;;;41.36;23.28;97802.03;5084400;28;20115;-78
2022/07/01 09:39:48;;;;;;;6.00;5.28;;;;;;;41.09;23.12;97804.97;5088791;28;20036;-78
2022/07/01 09:42:17;;;;;;;5.38;4.80;;;;;;;42.07;21.58;97798.63;5085242;28;20029;-78
2022/07/01 09:45:11;;;;;;;5.18;4.10;;;;;;;42.81;20.82;97788.91;5075316;28;20162;-79
2022/07/01 09:47:40;;;;;;;7.20;3.70;;;;;;;43.40;20.33;97798.41;5075471;28;20075;-79
2022/07/01 09:50:09;;;;;;;4.25;3.95;;;;;;;44.11;20.39;97799.47;5075318;28;20543;-79
2022/07/01 09:52:36;;;;;;;3.95;3.53;;;;;;;44.50;19.03;97799.63;5075264;28;20070;-79
2022/07/01 09:55:07;;;;;;;4.43;4.10;;;;;;;44.66;19.33;97794.53;5079546;28;20491;-79
2022/07/01 09:57:33;;;;;;;5.50;4.97;;;;;;;43.73;20.26;97811.78;5095078;28;20043;-80
2022/07/01 10:00:01;;;;;;;5.30;4.82;;;;;;;43.90;20.61;97799.66;5093983;28;20135;-79
2022/07/01 10:02:31;;;;;;;5.70;5.20;;;;;;;43.28;20.16;97798.00;5095619;28;20039;-80
2022/07/01 10:05:00;;;;;;;6.10;5.50;;;;;;;42.93;21.01;97818.28;5096002;28;20028;-79
2022/07/01 10:07:45;;;;;;;9.20;6.25;;;;;;;43.08;19.97;97807.56;5095104;28;20046;-80
2022/07/01 10:10:31;;;;;;;6.43;5.78;;;;;;;42.83;20.74;97805.69;5074959;28;20036;-79
2022/07/01 10:12:59;;;;;;;6.63;5.95;;;;;;;43.08;20.57;97812.56;5074978;28;20362;-79
2022/07/01 10:15:26;;;;;;;9.07;6.07;;;;;;;43.01;19.41;97808.31;5077892;28;20100;-79
2022/07/01 10:17:55;;;;;;;11.07;6.18;;;;;;;42.99;20.24;97802.31;5094982;28;20069;-79
2022/07/01 10:20:30;;;;;;;9.32;6.53;;;;;;;43.41;20.33;97805.75;5094964;28;20031;-79
2022/07/01 10:23:05;;;;;;;6.57;5.90;;;;;;;43.29;19.75;97793.78;5094585;28;20032;-79
2022/07/01 10:25:31;;;;;;;6.47;5.88;;;;;;;43.03;19.10;97794.06;5094606;28;20031;-79
2022/07/01 10:28:25;;;;;;;6.43;5.57;;;;;;;43.20;20.21;97796.41;5094577;28;20103;-79
2022/07/01 10:30:59;;;;;;;8.88;5.03;;;;;;;43.65;19.14;97789.94;5094809;28;20060;-79
2022/07/01 10:33:31;;;;;;;5.53;5.13;;;;;;;43.32;19.77;97780.25;5081462;28;20033;-79
2022/07/01 10:36:10;;;;;;;7.80;4.93;;;;;;;43.73;18.09;97784.97;5074507;28;20028;-79
2022/07/01 10:39:09;;;;;;;4.72;4.35;;;;;;;43.56;18.95;97788.41;5077758;28;20057;-80
2022/07/01 10:41:40;;;;;;;5.90;4.60;;;;;;;44.13;18.79;97770.72;5094713;28;20028;-79
2022/07/01 10:44:09;;;;;;;4.55;4.13;;;;;;;44.28;17.74;97773.56;5094966;28;20055;-79
2022/07/01 10:46:57;;;;;;;4.47;4.07;;;;;;;43.61;18.64;97775.88;5094461;28;20034;-79
2022/07/01 10:49:46;;;;;;;4.05;3.42;;;;;;;43.87;17.38;97771.88;5093136;28;20063;-79
2022/07/01 10:52:16;;;;;;;3.60;3.30;;;;;;;44.28;17.49;97765.66;5087781;28;20044;-79
2022/07/01 10:54:45;;;;;;;5.10;3.45;;;;;;;44.29;17.33;97767.22;5081424;28;20036;-79
2022/07/01 10:57:22;;;;;;;5.72;3.00;;;;;;;44.22;17.36;97768.00;5073917;28;20033;-79
2022/07/01 10:59:54;;;;;;;3.05;2.75;;;;;;;43.80;18.15;97770.53;5074035;28;20062;-79
2022/07/01 11:02:33;;;;;;;3.05;2.75;;;;;;;43.52;17.38;97769.91;5073931;28;20115;-79
2022/07/01 11:05:01;;;;;;;2.90;2.70;;;;;;;43.81;17.36;97768.41;5074063;28;20025;-79
2022/07/01 11:07:32;;;;;;;3.25;2.95;;;;;;;43.72;18.11;97774.75;5085387;28;20040;-79
2022/07/01 11:10:00;;;;;;;2.63;2.42;;;;;;;43.60;17.95;97780.13;5087696;28;20027;-79
2022/07/01 11:12:29;;;;;;;3.05;2.85;;;;;;;43.65;17.94;97770.47;5073656;28;20057;-80
2022/07/01 11:15:01;;;;;;;2.60;2.40;;;;;;;43.58;17.75;97777.03;5073750;28;20085;-79
2022/07/01 11:17:28;;;;;;;3.63;2.60;;;;;;;44.03;18.03;97773.41;5074006;28;20028;-79
2022/07/01 11:20:01;;;;;;;2.42;2.25;;;;;;;44.56;18.44;97767.53;5073538;28;20032;-79
2022/07/01 11:22:30;;;;;;;5.45;3.15;;;;;;;44.78;17.02;97771.69;5073197;28;20032;-79
2022/07/01 11:24:59;;;;;;;4.28;2.40;;;;;;;45.13;17.37;97762.66;5089067;28;20036;-79
2022/07/01 11:27:26;;;;;;;3.80;2.35;;;;;;;45.33;16.93;97757.19;5093598;28;20078;-79
2022/07/01 11:30:04;;;;;;;2.00;1.90;;;;;;;45.93;16.53;97766.16;5093475;28;20070;-79
2022/07/01 11:32:33;;;;;;;2.00;1.90;;;;;;;46.25;15.67;97761.66;5089192;28;20468;-79
2022/07/01 11:35:01;;;;;;;1.65;1.55;;;;;;;45.73;16.62;97754.94;5078199;28;20179;-79
2022/07/01 11:40:17;;;;;;;2.15;2.05;;;;;;;46.08;15.91;97752.91;5088448;28;20056;-79
2022/07/01 11:42:43;;;;;;;2.50;2.30;;;;;;;46.25;14.74;97747.91;5073248;28;20031;-80
2022/07/01 11:45:22;;;;;;;2.20;2.10;;;;;;;46.49;15.71;97749.97;5077165;28;20027;-80